sensor_id;sensor_type;location;lat;lon;timestamp;P1;durP1;ratioP1;P2;durP2;ratioP2
61709;SDS011;47633;51.494;5.386;2023-06-22T00:01:52;3.40;;;1.80;;
61709;SDS011;47633;51.494;5.386;2023-06-22T00:04:17;3.20;;;1.60;;
61709;SDS011;47633;51.494;5.386;2023-06-22T00:06:42;3.63;;;1.70;;
61709;SDS011;47633;51.494;5.386;2023-06-22T00:09:08;3.58;;;1.75;;
61709;SDS011;47633;51.494;5.386;2023-06-22T00:11:35;5.25;;;2.08;;
61709;SDS011;47633;51.494;5.386;2023-06-22T00:14:01;2.97;;;1.50;;
61709;SDS011;47633;51.494;5.386;2023-06-22T00:16:26;4.70;;;1.70;;
61709;SDS011;47633;51.494;5.386;2023-06-22T00:18:51;3.40;;;1.58;;
61709;SDS011;47633;51.494;5.386;2023-06-22T00:21:16;3.40;;;1.60;;
61709;SDS011;47633;51.494;5.386;2023-06-22T00:23:42;5.10;;;1.83;;
61709;SDS011;47633;51.494;5.386;2023-06-22T00:26:08;3.72;;;1.58;;
61709;SDS011;47633;51.494;5.386;2023-06-22T00:28:33;3.90;;;1.75;;
61709;SDS011;47633;51.494;5.386;2023-06-22T00:30:59;3.38;;;1.83;;
61709;SDS011;47633;51.494;5.386;2023-06-22T00:33:25;3.50;;;1.65;;
61709;SDS011;47633;51.494;5.386;2023-06-22T00:35:51;4.00;;;1.80;;
61709;SDS011;47633;51.494;5.386;2023-06-22T00:38:17;4.43;;;2.00;;
61709;SDS011;47633;51.494;5.386;2023-06-22T00:40:43;4.65;;;1.80;;
61709;SDS011;47633;51.494;5.386;2023-06-22T00:43:09;3.75;;;1.60;;
61709;SDS011;47633;51.494;5.386;2023-06-22T00:45:34;2.75;;;1.40;;
61709;SDS011;47633;51.494;5.386;2023-06-22T00:47:59;3.55;;;1.67;;
61709;SDS011;47633;51.494;5.386;2023-06-22T00:50:26;3.80;;;1.92;;
61709;SDS011;47633;51.494;5.386;2023-06-22T00:52:58;4.18;;;1.83;;
61709;SDS011;47633;51.494;5.386;2023-06-22T00:55:25;4.03;;;1.80;;
61709;SDS011;47633;51.494;5.386;2023-06-22T00:57:52;3.60;;;1.90;;
61709;SDS011;47633;51.494;5.386;2023-06-22T01:00:24;3.40;;;1.80;;
61709;SDS011;47633;51.494;5.386;2023-06-22T01:02:50;3.72;;;1.73;;
61709;SDS011;47633;51.494;5.386;2023-06-22T01:05:20;4.25;;;1.80;;
61709;SDS011;47633;51.494;5.386;2023-06-22T01:08:07;3.33;;;1.52;;
61709;SDS011;47633;51.494;5.386;2023-06-22T01:13:18;3.75;;;1.90;;
61709;SDS011;47633;51.494;5.386;2023-06-22T01:16:01;3.80;;;1.80;;
61709;SDS011;47633;51.494;5.386;2023-06-22T01:18:30;3.47;;;1.88;;
61709;SDS011;47633;51.494;5.386;2023-06-22T01:20:58;5.07;;;1.98;;
61709;SDS011;47633;51.494;5.386;2023-06-22T01:23:42;3.47;;;1.92;;
61709;SDS011;47633;51.494;5.386;2023-06-22T01:29:17;3.70;;;2.03;;
61709;SDS011;47633;51.494;5.386;2023-06-22T01:31:44;4.78;;;2.00;;
61709;SDS011;47633;51.494;5.386;2023-06-22T01:34:10;3.90;;;1.90;;
61709;SDS011;47633;51.494;5.386;2023-06-22T01:36:37;4.15;;;1.90;;
61709;SDS011;47633;51.494;5.386;2023-06-22T01:39:04;4.18;;;1.80;;
61709;SDS011;47633;51.494;5.386;2023-06-22T01:41:33;4.60;;;2.10;;
61709;SDS011;47633;51.494;5.386;2023-06-22T01:44:00;4.05;;;1.80;;
61709;SDS011;47633;51.494;5.386;2023-06-22T01:46:26;4.55;;;2.25;;
61709;SDS011;47633;51.494;5.386;2023-06-22T01:48:52;3.92;;;2.10;;
61709;SDS011;47633;51.494;5.386;2023-06-22T01:51:18;3.90;;;2.10;;
61709;SDS011;47633;51.494;5.386;2023-06-22T01:53:43;3.70;;;2.13;;
61709;SDS011;47633;51.494;5.386;2023-06-22T01:56:08;4.72;;;2.25;;
61709;SDS011;47633;51.494;5.386;2023-06-22T01:58:34;3.63;;;1.85;;
61709;SDS011;47633;51.494;5.386;2023-06-22T02:01:09;3.80;;;2.13;;
61709;SDS011;47633;51.494;5.386;2023-06-22T02:03:41;4.60;;;2.10;;
61709;SDS011;47633;51.494;5.386;2023-06-22T02:06:27;4.75;;;2.20;;
61709;SDS011;47633;51.494;5.386;2023-06-22T02:09:00;3.67;;;2.13;;
61709;SDS011;47633;51.494;5.386;2023-06-22T02:11:28;4.30;;;2.33;;
61709;SDS011;47633;51.494;5.386;2023-06-22T02:13:56;4.00;;;2.30;;
61709;SDS011;47633;51.494;5.386;2023-06-22T02:16:22;4.35;;;2.60;;
61709;SDS011;47633;51.494;5.386;2023-06-22T02:18:48;6.07;;;2.60;;
61709;SDS011;47633;51.494;5.386;2023-06-22T02:21:17;4.55;;;2.50;;
61709;SDS011;47633;51.494;5.386;2023-06-22T02:23:43;3.90;;;2.30;;
61709;SDS011;47633;51.494;5.386;2023-06-22T02:26:09;5.63;;;2.38;;
61709;SDS011;47633;51.494;5.386;2023-06-22T02:28:34;4.30;;;2.47;;
61709;SDS011;47633;51.494;5.386;2023-06-22T02:31:00;4.18;;;2.35;;
61709;SDS011;47633;51.494;5.386;2023-06-22T02:33:25;4.82;;;2.50;;
61709;SDS011;47633;51.494;5.386;2023-06-22T02:35:50;4.80;;;2.67;;
61709;SDS011;47633;51.494;5.386;2023-06-22T02:38:16;4.63;;;2.63;;
61709;SDS011;47633;51.494;5.386;2023-06-22T02:40:42;4.35;;;2.30;;
61709;SDS011;47633;51.494;5.386;2023-06-22T02:43:08;4.70;;;2.47;;
61709;SDS011;47633;51.494;5.386;2023-06-22T02:45:33;5.00;;;2.65;;
61709;SDS011;47633;51.494;5.386;2023-06-22T02:47:58;4.07;;;2.47;;
61709;SDS011;47633;51.494;5.386;2023-06-22T02:50:24;4.63;;;2.80;;
61709;SDS011;47633;51.494;5.386;2023-06-22T02:52:49;4.43;;;2.75;;
61709;SDS011;47633;51.494;5.386;2023-06-22T02:55:14;6.68;;;2.78;;
61709;SDS011;47633;51.494;5.386;2023-06-22T02:57:40;4.78;;;2.67;;
61709;SDS011;47633;51.494;5.386;2023-06-22T03:00:08;5.10;;;2.78;;
61709;SDS011;47633;51.494;5.386;2023-06-22T03:02:43;3.92;;;2.38;;
61709;SDS011;47633;51.494;5.386;2023-06-22T03:05:13;4.82;;;2.67;;
61709;SDS011;47633;51.494;5.386;2023-06-22T03:07:40;4.70;;;2.78;;
61709;SDS011;47633;51.494;5.386;2023-06-22T03:10:09;5.20;;;2.63;;
61709;SDS011;47633;51.494;5.386;2023-06-22T03:12:36;5.43;;;2.72;;
61709;SDS011;47633;51.494;5.386;2023-06-22T03:15:05;4.43;;;2.30;;
61709;SDS011;47633;51.494;5.386;2023-06-22T03:17:33;4.75;;;2.50;;
61709;SDS011;47633;51.494;5.386;2023-06-22T03:19:59;4.13;;;2.47;;
61709;SDS011;47633;51.494;5.386;2023-06-22T03:22:24;5.18;;;2.95;;
61709;SDS011;47633;51.494;5.386;2023-06-22T03:24:50;4.97;;;2.70;;
61709;SDS011;47633;51.494;5.386;2023-06-22T03:27:15;6.15;;;2.63;;
61709;SDS011;47633;51.494;5.386;2023-06-22T03:29:42;4.90;;;2.80;;
61709;SDS011;47633;51.494;5.386;2023-06-22T03:32:07;5.65;;;2.72;;
61709;SDS011;47633;51.494;5.386;2023-06-22T03:34:32;5.68;;;2.67;;
61709;SDS011;47633;51.494;5.386;2023-06-22T03:36:59;5.18;;;3.03;;
61709;SDS011;47633;51.494;5.386;2023-06-22T03:39:25;4.50;;;2.60;;
61709;SDS011;47633;51.494;5.386;2023-06-22T03:41:50;4.63;;;2.85;;
61709;SDS011;47633;51.494;5.386;2023-06-22T03:44:15;5.10;;;2.72;;
61709;SDS011;47633;51.494;5.386;2023-06-22T03:46:41;4.88;;;2.85;;
61709;SDS011;47633;51.494;5.386;2023-06-22T03:49:06;4.80;;;2.80;;
61709;SDS011;47633;51.494;5.386;2023-06-22T03:51:32;5.03;;;2.92;;
61709;SDS011;47633;51.494;5.386;2023-06-22T03:53:57;4.32;;;2.70;;
61709;SDS011;47633;51.494;5.386;2023-06-22T03:56:23;5.65;;;3.00;;
61709;SDS011;47633;51.494;5.386;2023-06-22T03:58:48;4.80;;;2.70;;
61709;SDS011;47633;51.494;5.386;2023-06-22T04:01:14;4.75;;;2.42;;
61709;SDS011;47633;51.494;5.386;2023-06-22T04:03:40;4.43;;;2.67;;
61709;SDS011;47633;51.494;5.386;2023-06-22T04:06:06;4.72;;;2.78;;
61709;SDS011;47633;51.494;5.386;2023-06-22T04:08:31;6.27;;;3.07;;
61709;SDS011;47633;51.494;5.386;2023-06-22T04:10:56;5.28;;;2.90;;
61709;SDS011;47633;51.494;5.386;2023-06-22T04:13:22;6.22;;;3.10;;
61709;SDS011;47633;51.494;5.386;2023-06-22T04:15:47;5.57;;;3.05;;
61709;SDS011;47633;51.494;5.386;2023-06-22T04:18:12;4.90;;;2.72;;
61709;SDS011;47633;51.494;5.386;2023-06-22T04:20:38;4.78;;;2.80;;
61709;SDS011;47633;51.494;5.386;2023-06-22T04:23:04;5.38;;;3.38;;
61709;SDS011;47633;51.494;5.386;2023-06-22T04:25:29;5.53;;;2.92;;
61709;SDS011;47633;51.494;5.386;2023-06-22T04:27:54;6.07;;;2.90;;
61709;SDS011;47633;51.494;5.386;2023-06-22T04:30:20;4.95;;;2.70;;
61709;SDS011;47633;51.494;5.386;2023-06-22T04:32:45;5.93;;;3.05;;
61709;SDS011;47633;51.494;5.386;2023-06-22T04:35:10;4.95;;;2.80;;
61709;SDS011;47633;51.494;5.386;2023-06-22T04:37:36;4.95;;;2.88;;
61709;SDS011;47633;51.494;5.386;2023-06-22T04:40:02;5.03;;;2.90;;
61709;SDS011;47633;51.494;5.386;2023-06-22T04:42:30;5.43;;;2.95;;
61709;SDS011;47633;51.494;5.386;2023-06-22T04:44:57;5.28;;;2.80;;
61709;SDS011;47633;51.494;5.386;2023-06-22T04:47:22;4.95;;;2.75;;
61709;SDS011;47633;51.494;5.386;2023-06-22T04:49:47;5.70;;;2.80;;
61709;SDS011;47633;51.494;5.386;2023-06-22T04:52:13;4.55;;;2.53;;
61709;SDS011;47633;51.494;5.386;2023-06-22T04:54:39;4.50;;;2.95;;
61709;SDS011;47633;51.494;5.386;2023-06-22T04:57:13;6.00;;;3.03;;
61709;SDS011;47633;51.494;5.386;2023-06-22T04:59:39;5.25;;;3.00;;
61709;SDS011;47633;51.494;5.386;2023-06-22T05:02:06;4.82;;;2.97;;
61709;SDS011;47633;51.494;5.386;2023-06-22T05:04:32;5.50;;;2.97;;
61709;SDS011;47633;51.494;5.386;2023-06-22T05:06:59;4.60;;;2.70;;
61709;SDS011;47633;51.494;5.386;2023-06-22T05:09:25;4.60;;;2.80;;
61709;SDS011;47633;51.494;5.386;2023-06-22T05:11:51;4.75;;;2.55;;
61709;SDS011;47633;51.494;5.386;2023-06-22T05:14:16;5.03;;;2.50;;
61709;SDS011;47633;51.494;5.386;2023-06-22T05:16:43;5.47;;;2.85;;
61709;SDS011;47633;51.494;5.386;2023-06-22T05:19:09;5.40;;;2.83;;
61709;SDS011;47633;51.494;5.386;2023-06-22T05:21:35;4.47;;;2.60;;
61709;SDS011;47633;51.494;5.386;2023-06-22T05:24:00;4.47;;;2.90;;
61709;SDS011;47633;51.494;5.386;2023-06-22T05:26:27;5.35;;;2.85;;
61709;SDS011;47633;51.494;5.386;2023-06-22T05:28:53;5.60;;;2.92;;
61709;SDS011;47633;51.494;5.386;2023-06-22T05:31:19;5.68;;;2.90;;
61709;SDS011;47633;51.494;5.386;2023-06-22T05:33:45;5.38;;;2.60;;
61709;SDS011;47633;51.494;5.386;2023-06-22T05:36:12;4.47;;;2.67;;
61709;SDS011;47633;51.494;5.386;2023-06-22T05:38:38;4.93;;;3.00;;
61709;SDS011;47633;51.494;5.386;2023-06-22T05:41:04;4.03;;;2.60;;
61709;SDS011;47633;51.494;5.386;2023-06-22T05:43:30;5.32;;;2.90;;
61709;SDS011;47633;51.494;5.386;2023-06-22T05:45:55;5.03;;;2.80;;
61709;SDS011;47633;51.494;5.386;2023-06-22T05:48:21;5.45;;;2.75;;
61709;SDS011;47633;51.494;5.386;2023-06-22T05:50:46;5.28;;;3.03;;
61709;SDS011;47633;51.494;5.386;2023-06-22T05:53:12;6.38;;;3.03;;
61709;SDS011;47633;51.494;5.386;2023-06-22T05:55:37;5.82;;;2.90;;
61709;SDS011;47633;51.494;5.386;2023-06-22T05:58:02;4.82;;;2.85;;
61709;SDS011;47633;51.494;5.386;2023-06-22T06:00:31;5.18;;;2.67;;
61709;SDS011;47633;51.494;5.386;2023-06-22T06:02:56;5.40;;;3.25;;
61709;SDS011;47633;51.494;5.386;2023-06-22T06:05:22;5.30;;;3.10;;
61709;SDS011;47633;51.494;5.386;2023-06-22T06:07:49;5.93;;;3.10;;
61709;SDS011;47633;51.494;5.386;2023-06-22T06:10:14;5.40;;;3.10;;
61709;SDS011;47633;51.494;5.386;2023-06-22T06:12:39;4.80;;;2.78;;
61709;SDS011;47633;51.494;5.386;2023-06-22T06:15:05;5.13;;;2.85;;
61709;SDS011;47633;51.494;5.386;2023-06-22T06:17:31;6.68;;;3.10;;
61709;SDS011;47633;51.494;5.386;2023-06-22T06:19:56;6.13;;;3.50;;
61709;SDS011;47633;51.494;5.386;2023-06-22T06:22:21;5.13;;;3.00;;
61709;SDS011;47633;51.494;5.386;2023-06-22T06:24:48;10.43;;;7.60;;
61709;SDS011;47633;51.494;5.386;2023-06-22T06:27:14;11.48;;;9.18;;
61709;SDS011;47633;51.494;5.386;2023-06-22T06:29:41;12.57;;;9.35;;
61709;SDS011;47633;51.494;5.386;2023-06-22T06:32:06;11.52;;;9.43;;
61709;SDS011;47633;51.494;5.386;2023-06-22T06:34:32;11.88;;;9.25;;
61709;SDS011;47633;51.494;5.386;2023-06-22T06:36:57;11.60;;;10.10;;
61709;SDS011;47633;51.494;5.386;2023-06-22T06:39:22;14.10;;;10.88;;
61709;SDS011;47633;51.494;5.386;2023-06-22T06:41:48;12.73;;;9.85;;
61709;SDS011;47633;51.494;5.386;2023-06-22T06:44:13;11.77;;;9.70;;
61709;SDS011;47633;51.494;5.386;2023-06-22T06:46:38;11.30;;;9.52;;
61709;SDS011;47633;51.494;5.386;2023-06-22T06:49:04;15.27;;;11.05;;
61709;SDS011;47633;51.494;5.386;2023-06-22T06:51:29;13.25;;;9.98;;
61709;SDS011;47633;51.494;5.386;2023-06-22T06:53:54;12.68;;;9.77;;
61709;SDS011;47633;51.494;5.386;2023-06-22T06:56:20;14.30;;;10.37;;
61709;SDS011;47633;51.494;5.386;2023-06-22T06:58:45;14.13;;;10.15;;
61709;SDS011;47633;51.494;5.386;2023-06-22T07:01:11;14.55;;;10.25;;
61709;SDS011;47633;51.494;5.386;2023-06-22T07:03:37;14.63;;;10.95;;
61709;SDS011;47633;51.494;5.386;2023-06-22T07:06:03;14.10;;;9.63;;
61709;SDS011;47633;51.494;5.386;2023-06-22T07:08:28;14.07;;;10.65;;
61709;SDS011;47633;51.494;5.386;2023-06-22T07:10:54;13.40;;;10.82;;
61709;SDS011;47633;51.494;5.386;2023-06-22T07:13:19;14.15;;;11.20;;
61709;SDS011;47633;51.494;5.386;2023-06-22T07:15:44;14.38;;;11.20;;
61709;SDS011;47633;51.494;5.386;2023-06-22T07:18:10;12.73;;;10.85;;
61709;SDS011;47633;51.494;5.386;2023-06-22T07:20:35;12.95;;;11.13;;
61709;SDS011;47633;51.494;5.386;2023-06-22T07:23:00;16.13;;;10.75;;
61709;SDS011;47633;51.494;5.386;2023-06-22T07:25:25;12.80;;;10.30;;
61709;SDS011;47633;51.494;5.386;2023-06-22T07:28:01;13.27;;;10.50;;
61709;SDS011;47633;51.494;5.386;2023-06-22T07:30:28;11.88;;;9.63;;
61709;SDS011;47633;51.494;5.386;2023-06-22T07:32:54;13.13;;;10.25;;
61709;SDS011;47633;51.494;5.386;2023-06-22T07:35:19;17.20;;;10.27;;
61709;SDS011;47633;51.494;5.386;2023-06-22T07:37:45;12.25;;;10.55;;
61709;SDS011;47633;51.494;5.386;2023-06-22T07:40:10;14.47;;;11.13;;
61709;SDS011;47633;51.494;5.386;2023-06-22T07:42:36;13.48;;;11.65;;
61709;SDS011;47633;51.494;5.386;2023-06-22T07:45:02;14.30;;;11.93;;
61709;SDS011;47633;51.494;5.386;2023-06-22T07:47:28;13.32;;;11.75;;
61709;SDS011;47633;51.494;5.386;2023-06-22T07:49:54;14.15;;;12.02;;
61709;SDS011;47633;51.494;5.386;2023-06-22T07:52:26;14.02;;;11.82;;
61709;SDS011;47633;51.494;5.386;2023-06-22T07:54:51;13.55;;;12.10;;
61709;SDS011;47633;51.494;5.386;2023-06-22T07:57:16;14.07;;;11.95;;
61709;SDS011;47633;51.494;5.386;2023-06-22T07:59:42;13.75;;;12.30;;
61709;SDS011;47633;51.494;5.386;2023-06-22T08:02:07;14.27;;;12.77;;
61709;SDS011;47633;51.494;5.386;2023-06-22T08:04:34;15.43;;;12.85;;
61709;SDS011;47633;51.494;5.386;2023-06-22T08:06:59;13.82;;;12.27;;
61709;SDS011;47633;51.494;5.386;2023-06-22T08:09:27;14.05;;;12.48;;
61709;SDS011;47633;51.494;5.386;2023-06-22T08:11:53;15.93;;;12.57;;
61709;SDS011;47633;51.494;5.386;2023-06-22T08:14:20;16.08;;;12.13;;
61709;SDS011;47633;51.494;5.386;2023-06-22T08:16:46;14.90;;;11.98;;
61709;SDS011;47633;51.494;5.386;2023-06-22T08:19:11;13.75;;;11.48;;
61709;SDS011;47633;51.494;5.386;2023-06-22T08:21:36;13.20;;;11.60;;
61709;SDS011;47633;51.494;5.386;2023-06-22T08:24:02;15.35;;;12.35;;
61709;SDS011;47633;51.494;5.386;2023-06-22T08:26:28;14.85;;;11.85;;
61709;SDS011;47633;51.494;5.386;2023-06-22T08:28:53;17.90;;;12.95;;
61709;SDS011;47633;51.494;5.386;2023-06-22T08:31:19;14.80;;;11.82;;
61709;SDS011;47633;51.494;5.386;2023-06-22T08:33:44;11.90;;;10.15;;
61709;SDS011;47633;51.494;5.386;2023-06-22T08:36:11;12.32;;;9.93;;
61709;SDS011;47633;51.494;5.386;2023-06-22T08:38:38;11.45;;;9.32;;
61709;SDS011;47633;51.494;5.386;2023-06-22T08:41:03;11.80;;;7.72;;
61709;SDS011;47633;51.494;5.386;2023-06-22T08:43:29;11.40;;;7.68;;
61709;SDS011;47633;51.494;5.386;2023-06-22T08:45:54;10.52;;;7.50;;
61709;SDS011;47633;51.494;5.386;2023-06-22T08:48:19;10.93;;;6.85;;
61709;SDS011;47633;51.494;5.386;2023-06-22T08:50:44;10.27;;;7.07;;
61709;SDS011;47633;51.494;5.386;2023-06-22T08:53:10;8.00;;;5.85;;
61709;SDS011;47633;51.494;5.386;2023-06-22T08:55:35;10.07;;;6.32;;
61709;SDS011;47633;51.494;5.386;2023-06-22T08:58:00;8.20;;;5.28;;
61709;SDS011;47633;51.494;5.386;2023-06-22T09:00:26;9.77;;;5.20;;
61709;SDS011;47633;51.494;5.386;2023-06-22T09:02:53;8.40;;;5.25;;
61709;SDS011;47633;51.494;5.386;2023-06-22T09:05:23;12.00;;;5.60;;
61709;SDS011;47633;51.494;5.386;2023-06-22T09:07:50;9.40;;;5.25;;
61709;SDS011;47633;51.494;5.386;2023-06-22T09:10:15;9.60;;;4.78;;
61709;SDS011;47633;51.494;5.386;2023-06-22T09:12:40;7.53;;;4.82;;
61709;SDS011;47633;51.494;5.386;2023-06-22T09:15:07;7.05;;;4.53;;
61709;SDS011;47633;51.494;5.386;2023-06-22T09:17:33;8.85;;;4.80;;
61709;SDS011;47633;51.494;5.386;2023-06-22T09:19:59;8.10;;;5.13;;
61709;SDS011;47633;51.494;5.386;2023-06-22T09:22:24;8.38;;;4.97;;
61709;SDS011;47633;51.494;5.386;2023-06-22T09:24:53;7.45;;;4.47;;
61709;SDS011;47633;51.494;5.386;2023-06-22T09:27:19;7.90;;;4.50;;
61709;SDS011;47633;51.494;5.386;2023-06-22T09:29:44;8.57;;;4.83;;
61709;SDS011;47633;51.494;5.386;2023-06-22T09:32:10;7.45;;;3.90;;
61709;SDS011;47633;51.494;5.386;2023-06-22T09:34:35;7.15;;;4.60;;
61709;SDS011;47633;51.494;5.386;2023-06-22T09:37:01;9.07;;;4.32;;
61709;SDS011;47633;51.494;5.386;2023-06-22T09:39:26;7.13;;;4.32;;
61709;SDS011;47633;51.494;5.386;2023-06-22T09:41:51;7.47;;;4.03;;
61709;SDS011;47633;51.494;5.386;2023-06-22T09:44:17;6.95;;;4.30;;
61709;SDS011;47633;51.494;5.386;2023-06-22T09:46:42;6.57;;;3.63;;
61709;SDS011;47633;51.494;5.386;2023-06-22T09:49:08;8.05;;;4.25;;
61709;SDS011;47633;51.494;5.386;2023-06-22T09:51:33;6.50;;;4.13;;
61709;SDS011;47633;51.494;5.386;2023-06-22T09:53:59;6.47;;;3.97;;
61709;SDS011;47633;51.494;5.386;2023-06-22T09:56:24;6.53;;;3.80;;
61709;SDS011;47633;51.494;5.386;2023-06-22T09:58:49;6.30;;;3.72;;
61709;SDS011;47633;51.494;5.386;2023-06-22T10:01:17;7.45;;;3.97;;
61709;SDS011;47633;51.494;5.386;2023-06-22T10:03:43;6.97;;;3.67;;
61709;SDS011;47633;51.494;5.386;2023-06-22T10:06:08;6.40;;;3.67;;
61709;SDS011;47633;51.494;5.386;2023-06-22T10:08:34;7.28;;;4.03;;
61709;SDS011;47633;51.494;5.386;2023-06-22T10:11:00;7.13;;;3.90;;
61709;SDS011;47633;51.494;5.386;2023-06-22T10:13:26;5.38;;;3.70;;
61709;SDS011;47633;51.494;5.386;2023-06-22T10:15:51;4.95;;;3.58;;
61709;SDS011;47633;51.494;5.386;2023-06-22T10:18:20;6.30;;;3.55;;
61709;SDS011;47633;51.494;5.386;2023-06-22T10:20:47;5.40;;;3.67;;
61709;SDS011;47633;51.494;5.386;2023-06-22T10:23:15;6.97;;;3.70;;
61709;SDS011;47633;51.494;5.386;2023-06-22T10:25:40;5.75;;;3.40;;
61709;SDS011;47633;51.494;5.386;2023-06-22T10:28:05;6.95;;;4.22;;
61709;SDS011;47633;51.494;5.386;2023-06-22T10:30:32;5.15;;;3.50;;
61709;SDS011;47633;51.494;5.386;2023-06-22T10:32:57;5.85;;;3.67;;
61709;SDS011;47633;51.494;5.386;2023-06-22T10:35:23;5.75;;;3.40;;
61709;SDS011;47633;51.494;5.386;2023-06-22T10:37:48;5.78;;;3.38;;
61709;SDS011;47633;51.494;5.386;2023-06-22T10:40:14;6.47;;;3.63;;
61709;SDS011;47633;51.494;5.386;2023-06-22T10:42:40;9.23;;;3.53;;
61709;SDS011;47633;51.494;5.386;2023-06-22T10:45:06;5.68;;;3.30;;
61709;SDS011;47633;51.494;5.386;2023-06-22T10:47:33;5.78;;;3.40;;
61709;SDS011;47633;51.494;5.386;2023-06-22T10:49:58;7.63;;;3.80;;
61709;SDS011;47633;51.494;5.386;2023-06-22T10:52:24;7.15;;;3.70;;
61709;SDS011;47633;51.494;5.386;2023-06-22T10:54:49;6.85;;;3.83;;
61709;SDS011;47633;51.494;5.386;2023-06-22T10:57:15;5.38;;;3.67;;
61709;SDS011;47633;51.494;5.386;2023-06-22T10:59:40;5.45;;;3.60;;
61709;SDS011;47633;51.494;5.386;2023-06-22T11:02:06;5.63;;;3.22;;
61709;SDS011;47633;51.494;5.386;2023-06-22T11:04:31;7.70;;;3.80;;
61709;SDS011;47633;51.494;5.386;2023-06-22T11:06:56;6.15;;;3.45;;
61709;SDS011;47633;51.494;5.386;2023-06-22T11:09:22;9.32;;;3.97;;
61709;SDS011;47633;51.494;5.386;2023-06-22T11:11:47;6.78;;;3.53;;
61709;SDS011;47633;51.494;5.386;2023-06-22T11:14:14;6.63;;;3.90;;
61709;SDS011;47633;51.494;5.386;2023-06-22T11:16:40;9.38;;;4.30;;
61709;SDS011;47633;51.494;5.386;2023-06-22T11:19:05;7.13;;;4.50;;
61709;SDS011;47633;51.494;5.386;2023-06-22T11:21:31;5.68;;;3.78;;
61709;SDS011;47633;51.494;5.386;2023-06-22T11:23:57;7.07;;;3.85;;
61709;SDS011;47633;51.494;5.386;2023-06-22T11:26:23;6.20;;;4.28;;
61709;SDS011;47633;51.494;5.386;2023-06-22T11:28:48;6.07;;;4.05;;
61709;SDS011;47633;51.494;5.386;2023-06-22T11:31:14;7.55;;;4.10;;
61709;SDS011;47633;51.494;5.386;2023-06-22T11:33:39;6.70;;;4.03;;
61709;SDS011;47633;51.494;5.386;2023-06-22T11:36:05;9.02;;;4.47;;
61709;SDS011;47633;51.494;5.386;2023-06-22T11:38:30;6.70;;;4.22;;
61709;SDS011;47633;51.494;5.386;2023-06-22T11:40:57;10.23;;;4.60;;
61709;SDS011;47633;51.494;5.386;2023-06-22T11:43:23;5.85;;;3.90;;
61709;SDS011;47633;51.494;5.386;2023-06-22T11:45:49;7.88;;;4.40;;
61709;SDS011;47633;51.494;5.386;2023-06-22T11:48:14;7.88;;;4.65;;
61709;SDS011;47633;51.494;5.386;2023-06-22T11:50:39;6.28;;;4.45;;
61709;SDS011;47633;51.494;5.386;2023-06-22T11:53:05;7.60;;;4.05;;
61709;SDS011;47633;51.494;5.386;2023-06-22T11:55:30;7.35;;;4.72;;
61709;SDS011;47633;51.494;5.386;2023-06-22T11:57:56;7.60;;;4.03;;
61709;SDS011;47633;51.494;5.386;2023-06-22T12:00:25;6.75;;;4.57;;
61709;SDS011;47633;51.494;5.386;2023-06-22T12:02:50;8.00;;;4.20;;
61709;SDS011;47633;51.494;5.386;2023-06-22T12:05:17;7.90;;;4.60;;
61709;SDS011;47633;51.494;5.386;2023-06-22T12:07:44;6.55;;;4.40;;
61709;SDS011;47633;51.494;5.386;2023-06-22T12:10:09;6.88;;;4.32;;
61709;SDS011;47633;51.494;5.386;2023-06-22T12:12:35;6.93;;;4.55;;
61709;SDS011;47633;51.494;5.386;2023-06-22T12:15:00;7.57;;;4.30;;
61709;SDS011;47633;51.494;5.386;2023-06-22T12:17:28;7.47;;;5.00;;
61709;SDS011;47633;51.494;5.386;2023-06-22T12:19:54;7.20;;;4.40;;
61709;SDS011;47633;51.494;5.386;2023-06-22T12:22:19;8.55;;;4.68;;
61709;SDS011;47633;51.494;5.386;2023-06-22T12:24:44;8.37;;;4.80;;
61709;SDS011;47633;51.494;5.386;2023-06-22T12:27:09;6.97;;;4.50;;
61709;SDS011;47633;51.494;5.386;2023-06-22T12:29:35;8.25;;;4.65;;
61709;SDS011;47633;51.494;5.386;2023-06-22T12:32:00;7.55;;;4.68;;
61709;SDS011;47633;51.494;5.386;2023-06-22T12:34:25;7.75;;;4.63;;
61709;SDS011;47633;51.494;5.386;2023-06-22T12:36:51;9.18;;;4.50;;
61709;SDS011;47633;51.494;5.386;2023-06-22T12:39:19;8.85;;;5.35;;
61709;SDS011;47633;51.494;5.386;2023-06-22T12:41:44;8.80;;;4.88;;
61709;SDS011;47633;51.494;5.386;2023-06-22T12:44:09;9.88;;;4.35;;
61709;SDS011;47633;51.494;5.386;2023-06-22T12:46:34;7.82;;;4.22;;
61709;SDS011;47633;51.494;5.386;2023-06-22T12:49:02;7.35;;;3.97;;
61709;SDS011;47633;51.494;5.386;2023-06-22T12:51:29;8.75;;;4.30;;
61709;SDS011;47633;51.494;5.386;2023-06-22T12:53:55;6.47;;;4.35;;
61709;SDS011;47633;51.494;5.386;2023-06-22T12:56:20;7.60;;;4.35;;
61709;SDS011;47633;51.494;5.386;2023-06-22T12:58:45;7.35;;;4.00;;
61709;SDS011;47633;51.494;5.386;2023-06-22T13:01:11;7.10;;;3.95;;
61709;SDS011;47633;51.494;5.386;2023-06-22T13:03:36;7.88;;;4.25;;
61709;SDS011;47633;51.494;5.386;2023-06-22T13:06:01;7.13;;;4.03;;
61709;SDS011;47633;51.494;5.386;2023-06-22T13:08:28;6.93;;;3.80;;
61709;SDS011;47633;51.494;5.386;2023-06-22T13:10:54;7.32;;;4.53;;
61709;SDS011;47633;51.494;5.386;2023-06-22T13:13:21;8.48;;;4.40;;
61709;SDS011;47633;51.494;5.386;2023-06-22T13:15:49;8.27;;;4.32;;
61709;SDS011;47633;51.494;5.386;2023-06-22T13:18:15;6.53;;;4.13;;
61709;SDS011;47633;51.494;5.386;2023-06-22T13:20:40;5.95;;;3.95;;
61709;SDS011;47633;51.494;5.386;2023-06-22T13:23:06;7.03;;;3.97;;
61709;SDS011;47633;51.494;5.386;2023-06-22T13:25:31;6.40;;;3.80;;
61709;SDS011;47633;51.494;5.386;2023-06-22T13:27:56;6.65;;;4.10;;
61709;SDS011;47633;51.494;5.386;2023-06-22T13:30:22;8.43;;;4.28;;
61709;SDS011;47633;51.494;5.386;2023-06-22T13:32:47;6.43;;;4.30;;
61709;SDS011;47633;51.494;5.386;2023-06-22T13:35:12;9.68;;;4.28;;
61709;SDS011;47633;51.494;5.386;2023-06-22T13:37:37;6.90;;;4.00;;
61709;SDS011;47633;51.494;5.386;2023-06-22T13:40:04;6.18;;;3.95;;
61709;SDS011;47633;51.494;5.386;2023-06-22T13:42:31;5.53;;;3.92;;
61709;SDS011;47633;51.494;5.386;2023-06-22T13:44:57;6.15;;;3.75;;
61709;SDS011;47633;51.494;5.386;2023-06-22T13:47:23;6.80;;;4.30;;
61709;SDS011;47633;51.494;5.386;2023-06-22T13:49:48;5.53;;;3.70;;
61709;SDS011;47633;51.494;5.386;2023-06-22T13:52:13;5.50;;;3.63;;
61709;SDS011;47633;51.494;5.386;2023-06-22T13:54:39;6.80;;;3.65;;
61709;SDS011;47633;51.494;5.386;2023-06-22T13:57:04;7.65;;;4.03;;
61709;SDS011;47633;51.494;5.386;2023-06-22T13:59:30;5.82;;;3.92;;
61709;SDS011;47633;51.494;5.386;2023-06-22T14:01:55;6.18;;;4.07;;
61709;SDS011;47633;51.494;5.386;2023-06-22T14:04:21;6.13;;;3.88;;
61709;SDS011;47633;51.494;5.386;2023-06-22T14:06:48;7.22;;;3.80;;
61709;SDS011;47633;51.494;5.386;2023-06-22T14:09:13;8.00;;;3.78;;
61709;SDS011;47633;51.494;5.386;2023-06-22T14:11:39;5.95;;;4.15;;
61709;SDS011;47633;51.494;5.386;2023-06-22T14:14:04;5.50;;;3.70;;
61709;SDS011;47633;51.494;5.386;2023-06-22T14:16:29;5.55;;;3.80;;
61709;SDS011;47633;51.494;5.386;2023-06-22T14:18:55;5.60;;;3.92;;
61709;SDS011;47633;51.494;5.386;2023-06-22T14:21:20;5.50;;;3.63;;
61709;SDS011;47633;51.494;5.386;2023-06-22T14:23:45;6.20;;;3.88;;
61709;SDS011;47633;51.494;5.386;2023-06-22T14:26:14;5.85;;;3.50;;
61709;SDS011;47633;51.494;5.386;2023-06-22T14:28:42;6.53;;;3.85;;
61709;SDS011;47633;51.494;5.386;2023-06-22T14:31:16;6.10;;;4.07;;
61709;SDS011;47633;51.494;5.386;2023-06-22T14:33:47;6.60;;;3.90;;
61709;SDS011;47633;51.494;5.386;2023-06-22T14:36:13;6.18;;;3.95;;
61709;SDS011;47633;51.494;5.386;2023-06-22T14:38:39;6.25;;;3.65;;
61709;SDS011;47633;51.494;5.386;2023-06-22T14:41:05;6.32;;;3.70;;
61709;SDS011;47633;51.494;5.386;2023-06-22T14:43:30;7.68;;;4.20;;